Time;durP1;ratioP1;P1;durP2;ratioP2;P2;SDS_P1;SDS_P2;PMS_P1;PMS_P2;Temp;Humidity;BMP_temperature;BMP_pressure;BME280_temperature;BME280_humidity;BME280_pressure;Samples;Min_cycle;Max_cycle;Signal;HPM_P1;HPM_P2
2023/09/27 00:00:44;;;;;;;15.63;11.33;;;14.50;99.90;;;;;;5040926;28;20486;-51
2023/09/27 00:03:11;;;;;;;10.93;9.83;;;14.50;99.90;;;;;;5029691;28;20467;-50
2023/09/27 00:05:38;;;;;;;16.87;10.50;;;14.50;99.90;;;;;;5032069;28;20920;-50
2023/09/27 00:08:06;;;;;;;12.07;10.23;;;14.50;99.90;;;;;;5034169;28;20532;-51
2023/09/27 00:10:33;;;;;;;13.03;10.50;;;14.50;99.90;;;;;;5032888;28;20963;-51
2023/09/27 00:12:59;;;;;;;12.80;10.43;;;14.50;99.90;;;;;;5038339;28;20803;-50
2023/09/27 00:15:27;;;;;;;11.77;9.57;;;14.40;99.90;;;;;;5037088;28;20443;-49
2023/09/27 00:17:54;;;;;;;12.73;9.40;;;14.30;99.90;;;;;;5029407;28;20467;-50
2023/09/27 00:20:21;;;;;;;14.90;11.27;;;14.30;99.90;;;;;;5029747;28;20485;-50
2023/09/27 00:22:48;;;;;;;12.70;10.40;;;14.30;99.90;;;;;;5031761;28;20497;-52
2023/09/27 00:25:15;;;;;;;14.90;10.43;;;14.30;99.90;;;;;;5033436;28;20447;-51
2023/09/27 00:27:42;;;;;;;15.90;10.27;;;14.20;99.90;;;;;;5034839;28;20886;-50
2023/09/27 00:30:13;;;;;;;17.93;10.40;;;14.20;99.90;;;;;;5030544;28;20490;-50
2023/09/27 00:32:41;;;;;;;12.57;9.63;;;14.20;99.90;;;;;;5024232;28;20723;-50
2023/09/27 00:35:12;;;;;;;11.70;9.57;;;14.20;99.90;;;;;;5029187;28;20516;-51
2023/09/27 00:37:38;;;;;;;12.13;9.77;;;14.20;99.90;;;;;;5027920;28;20463;-51
2023/09/27 00:40:10;;;;;;;11.00;9.37;;;14.10;99.90;;;;;;5032636;28;20553;-50
2023/09/27 00:42:36;;;;;;;10.40;9.00;;;14.10;99.90;;;;;;5031776;28;20439;-51
2023/09/27 00:45:03;;;;;;;11.73;10.03;;;14.10;99.90;;;;;;5034543;28;20459;-51
2023/09/27 00:47:31;;;;;;;11.13;9.80;;;14.10;99.90;;;;;;5030528;28;20761;-50
2023/09/27 00:50:00;;;;;;;23.97;10.30;;;14.10;99.90;;;;;;5031020;28;20543;-51
2023/09/27 00:52:26;;;;;;;13.60;10.40;;;14.00;99.90;;;;;;5026964;28;20940;-51
2023/09/27 00:54:54;;;;;;;11.80;10.70;;;14.00;99.90;;;;;;5032145;28;21053;-51
2023/09/27 00:57:22;;;;;;;15.43;10.03;;;14.00;99.90;;;;;;5028158;28;20462;-51
2023/09/27 00:59:49;;;;;;;15.00;9.53;;;14.00;99.90;;;;;;5022398;28;20483;-52
2023/09/27 01:02:17;;;;;;;10.87;9.80;;;14.00;99.90;;;;;;5032671;28;20486;-52
2023/09/27 01:04:44;;;;;;;11.20;9.60;;;13.90;99.90;;;;;;5030581;28;20911;-50
2023/09/27 01:07:12;;;;;;;16.33;11.20;;;13.90;99.90;;;;;;5032440;28;20464;-51
2023/09/27 01:09:39;;;;;;;11.23;10.03;;;13.80;99.90;;;;;;5030501;28;20474;-50
2023/09/27 01:12:06;;;;;;;11.53;9.73;;;13.80;99.90;;;;;;5030097;28;20524;-51
2023/09/27 01:14:32;;;;;;;13.33;10.70;;;13.80;99.90;;;;;;5029656;28;20490;-50
2023/09/27 01:17:08;;;;;;;12.93;10.93;;;13.80;99.90;;;;;;5030175;28;20499;-50
2023/09/27 01:19:35;;;;;;;16.00;10.60;;;13.80;99.90;;;;;;5027443;28;20862;-51
2023/09/27 01:22:02;;;;;;;14.30;10.50;;;13.70;99.90;;;;;;5029646;28;20450;-50
2023/09/27 01:24:33;;;;;;;13.77;10.87;;;13.70;99.90;;;;;;5028801;28;20458;-50
2023/09/27 01:27:02;;;;;;;12.07;10.50;;;13.70;99.90;;;;;;5025716;28;20462;-49
2023/09/27 01:29:29;;;;;;;13.47;10.67;;;13.60;99.90;;;;;;5030954;28;20529;-50
2023/09/27 01:31:55;;;;;;;11.47;10.27;;;13.60;99.90;;;;;;5029515;28;20459;-51
2023/09/27 01:34:22;;;;;;;13.03;10.40;;;13.50;99.90;;;;;;5028210;28;20479;-51
2023/09/27 01:36:48;;;;;;;15.20;10.60;;;13.60;99.90;;;;;;5030478;28;20462;-50
2023/09/27 01:39:15;;;;;;;13.50;11.30;;;13.60;99.90;;;;;;5033281;28;20466;-50
2023/09/27 01:41:43;;;;;;;11.87;10.53;;;13.50;99.90;;;;;;5031674;28;20540;-50
2023/09/27 01:44:09;;;;;;;12.80;9.97;;;13.50;99.90;;;;;;5029642;28;20471;-51
2023/09/27 01:46:36;;;;;;;12.57;10.87;;;13.50;99.90;;;;;;5033343;28;20451;-50
2023/09/27 01:49:03;;;;;;;10.80;9.80;;;13.50;99.90;;;;;;5042676;28;21053;-49
2023/09/27 01:51:29;;;;;;;14.40;10.70;;;13.50;99.90;;;;;;5032146;28;20443;-51
2023/09/27 01:53:56;;;;;;;13.87;10.77;;;13.50;99.90;;;;;;5037622;28;20877;-51
2023/09/27 01:56:22;;;;;;;12.37;10.60;;;13.40;99.90;;;;;;5034163;28;20883;-51
2023/09/27 01:58:50;;;;;;;13.00;11.70;;;13.40;99.90;;;;;;5031869;28;20552;-54
2023/09/27 02:01:17;;;;;;;12.70;10.00;;;13.40;99.90;;;;;;5031756;28;20532;-50
2023/09/27 02:03:44;;;;;;;17.60;11.70;;;13.40;99.90;;;;;;5034049;28;20459;-50
2023/09/27 02:06:11;;;;;;;19.73;11.67;;;13.40;99.90;;;;;;5034158;28;20465;-51
2023/09/27 02:08:37;;;;;;;16.90;11.93;;;13.40;99.90;;;;;;5041648;28;20494;-50
2023/09/27 02:11:04;;;;;;;13.93;10.80;;;13.30;99.90;;;;;;5034451;28;20501;-52
2023/09/27 02:13:30;;;;;;;11.67;10.43;;;13.30;99.90;;;;;;5033290;28;20466;-50
2023/09/27 02:15:59;;;;;;;11.70;10.50;;;13.20;99.90;;;;;;5031605;28;20513;-49
2023/09/27 02:18:26;;;;;;;12.33;11.00;;;13.20;99.90;;;;;;5033395;28;20562;-50
2023/09/27 02:20:52;;;;;;;11.00;10.00;;;13.20;99.90;;;;;;5032511;28;21003;-52
2023/09/27 02:23:19;;;;;;;14.13;11.03;;;13.10;99.90;;;;;;5031806;28;20474;-49
2023/09/27 02:25:46;;;;;;;14.40;11.10;;;13.10;99.90;;;;;;5033040;28;20588;-50
2023/09/27 02:28:12;;;;;;;12.97;11.00;;;13.20;99.90;;;;;;5033691;28;20454;-50
2023/09/27 02:30:39;;;;;;;12.00;10.80;;;13.20;99.90;;;;;;5030200;28;20455;-51
2023/09/27 02:33:08;;;;;;;15.67;11.10;;;13.10;99.90;;;;;;5031244;28;20459;-50
2023/09/27 02:35:37;;;;;;;12.03;10.83;;;13.10;99.90;;;;;;5032999;28;21027;-50
2023/09/27 02:38:04;;;;;;;12.33;11.13;;;13.00;99.90;;;;;;5033428;28;20447;-49
2023/09/27 02:40:30;;;;;;;12.67;11.30;;;13.00;99.90;;;;;;5028436;28;20868;-51
2023/09/27 02:42:57;;;;;;;14.07;12.20;;;13.10;99.90;;;;;;5032621;28;20497;-50
2023/09/27 02:45:23;;;;;;;15.33;12.33;;;13.00;99.90;;;;;;5032817;28;21006;-51
2023/09/27 02:47:50;;;;;;;15.60;11.70;;;12.90;99.90;;;;;;5028858;28;20541;-50
2023/09/27 02:50:18;;;;;;;15.33;11.37;;;12.90;99.90;;;;;;5030919;28;20540;-51
2023/09/27 02:52:44;;;;;;;12.60;11.07;;;12.90;99.90;;;;;;5024190;28;20524;-50
2023/09/27 02:55:11;;;;;;;11.83;10.57;;;12.90;99.90;;;;;;5029312;28;20463;-49
2023/09/27 02:57:39;;;;;;;12.87;11.23;;;12.80;99.90;;;;;;5033727;28;20462;-50
2023/09/27 03:00:06;;;;;;;15.40;12.23;;;12.80;99.90;;;;;;5030779;28;20482;-50
2023/09/27 03:02:34;;;;;;;13.00;11.60;;;12.80;99.90;;;;;;5032265;28;20486;-50
2023/09/27 03:05:00;;;;;;;12.00;10.80;;;12.80;99.90;;;;;;5029225;28;20545;-49
2023/09/27 03:07:30;;;;;;;13.23;11.83;;;12.80;99.90;;;;;;5031739;28;20978;-49
2023/09/27 03:09:59;;;;;;;12.33;9.90;;;12.80;99.90;;;;;;5032745;28;20533;-49
2023/09/27 03:12:25;;;;;;;13.07;11.67;;;12.80;99.90;;;;;;5032899;28;20447;-51
2023/09/27 03:14:52;;;;;;;11.97;10.80;;;12.80;99.90;;;;;;5030411;28;20885;-51
2023/09/27 03:17:19;;;;;;;12.93;11.27;;;12.80;99.90;;;;;;5032248;28;20475;-50
2023/09/27 03:19:47;;;;;;;14.13;12.63;;;12.80;99.90;;;;;;5032472;28;20520;-50
2023/09/27 03:22:14;;;;;;;13.47;11.70;;;12.70;99.90;;;;;;5026414;28;20490;-51
2023/09/27 03:24:42;;;;;;;13.17;11.67;;;12.70;99.90;;;;;;5028705;28;20516;-51
2023/09/27 03:27:09;;;;;;;14.67;12.80;;;12.70;99.90;;;;;;5027784;28;20474;-51
2023/09/27 03:29:36;;;;;;;14.17;12.70;;;12.70;99.90;;;;;;5034253;28;20478;-50
2023/09/27 03:32:02;;;;;;;13.40;12.00;;;12.70;99.90;;;;;;5034858;28;20454;-50
2023/09/27 03:34:31;;;;;;;15.00;12.60;;;12.70;99.90;;;;;;5037787;28;21012;-49
2023/09/27 03:36:58;;;;;;;13.73;11.97;;;12.70;99.90;;;;;;5033745;28;20454;-50
2023/09/27 03:39:25;;;;;;;12.57;11.33;;;12.60;99.90;;;;;;5033224;28;20533;-51
2023/09/27 03:41:53;;;;;;;15.10;11.80;;;12.60;99.90;;;;;;5032428;28;20540;-51
2023/09/27 03:44:20;;;;;;;13.00;11.03;;;12.60;99.90;;;;;;5033336;28;20459;-50
2023/09/27 03:46:47;;;;;;;15.10;13.17;;;12.60;99.90;;;;;;5033959;28;20450;-51
2023/09/27 03:49:14;;;;;;;18.77;12.80;;;12.60;99.90;;;;;;5028135;28;20486;-51
2023/09/27 03:51:40;;;;;;;15.03;12.80;;;12.60;99.90;;;;;;5033988;28;21026;-50
2023/09/27 03:54:07;;;;;;;15.67;12.50;;;12.60;99.90;;;;;;5032267;28;20447;-50
2023/09/27 03:56:34;;;;;;;20.13;12.50;;;12.60;99.90;;;;;;5031978;28;20544;-50
2023/09/27 03:59:02;;;;;;;17.10;13.30;;;12.60;99.90;;;;;;5025790;28;20475;-51
2023/09/27 04:01:28;;;;;;;19.70;12.83;;;12.50;99.90;;;;;;5028991;28;20507;-50
2023/09/27 04:03:55;;;;;;;16.83;12.07;;;12.50;99.90;;;;;;5034845;28;20466;-50
2023/09/27 04:06:21;;;;;;;15.70;12.50;;;12.40;99.90;;;;;;5030392;28;20484;-51
2023/09/27 04:08:48;;;;;;;14.23;12.73;;;12.50;99.90;;;;;;5029051;28;20540;-52
2023/09/27 04:11:14;;;;;;;17.33;14.27;;;12.50;99.90;;;;;;5026002;28;20525;-50
2023/09/27 04:13:41;;;;;;;16.53;13.90;;;12.50;99.90;;;;;;5032532;28;20443;-52
2023/09/27 04:16:09;;;;;;;19.50;13.00;;;12.50;99.90;;;;;;5042853;28;20516;-51
2023/09/27 04:18:37;;;;;;;16.50;13.83;;;12.40;99.90;;;;;;5027808;28;20995;-50
2023/09/27 04:21:07;;;;;;;19.30;13.73;;;12.50;99.90;;;;;;5029516;28;20490;-50
2023/09/27 04:23:36;;;;;;;15.87;13.50;;;12.50;99.90;;;;;;5028209;28;20574;-50
2023/09/27 04:26:04;;;;;;;15.07;13.13;;;12.50;99.90;;;;;;5030225;28;20923;-50
2023/09/27 04:28:31;;;;;;;18.30;13.53;;;12.50;99.90;;;;;;5028211;28;20486;-51
2023/09/27 04:30:58;;;;;;;20.03;14.43;;;12.50;99.90;;;;;;5030992;28;21014;-50
2023/09/27 04:33:26;;;;;;;17.07;13.10;;;12.50;99.90;;;;;;5030592;28;20511;-51
2023/09/27 04:35:52;;;;;;;18.67;13.13;;;12.50;99.90;;;;;;5030465;28;20455;-51
2023/09/27 04:38:19;;;;;;;14.73;13.13;;;12.50;99.90;;;;;;5028950;28;20459;-51
2023/09/27 04:40:46;;;;;;;18.63;13.67;;;12.50;99.90;;;;;;5031263;28;20490;-51
2023/09/27 04:43:13;;;;;;;16.47;13.53;;;12.50;99.90;;;;;;5030559;28;20458;-51
2023/09/27 04:45:39;;;;;;;14.50;13.10;;;12.50;99.90;;;;;;5026865;28;20873;-50
2023/09/27 04:48:06;;;;;;;17.37;14.83;;;12.50;99.90;;;;;;5032397;28;20459;-51
2023/09/27 04:50:35;;;;;;;17.17;13.80;;;12.50;99.90;;;;;;5028301;28;20458;-51
2023/09/27 04:53:01;;;;;;;15.90;13.00;;;12.40;99.90;;;;;;5037041;28;20998;-51
2023/09/27 04:55:28;;;;;;;15.23;13.73;;;12.40;99.90;;;;;;5023411;28;20502;-51
2023/09/27 04:57:55;;;;;;;15.63;13.80;;;12.30;99.90;;;;;;5024510;28;20565;-51
2023/09/27 05:00:22;;;;;;;15.77;14.07;;;12.30;99.90;;;;;;5025305;28;20474;-51
2023/09/27 05:02:49;;;;;;;17.23;13.53;;;12.30;99.90;;;;;;5027827;28;20499;-52
2023/09/27 05:05:16;;;;;;;16.07;13.97;;;12.30;99.90;;;;;;5030693;28;20505;-52
2023/09/27 05:07:44;;;;;;;17.90;13.50;;;12.30;99.90;;;;;;5018672;28;20529;-51
2023/09/27 05:10:12;;;;;;;18.50;14.03;;;12.30;99.90;;;;;;5028220;28;20466;-52
2023/09/27 05:12:39;;;;;;;17.27;13.10;;;12.30;99.90;;;;;;5029029;28;20458;-52
2023/09/27 05:15:07;;;;;;;14.43;12.90;;;12.30;99.90;;;;;;5026947;28;20974;-52
2023/09/27 05:17:34;;;;;;;16.40;13.83;;;12.30;99.90;;;;;;5029041;28;20466;-51
2023/09/27 05:20:00;;;;;;;16.30;14.60;;;12.30;99.90;;;;;;5037520;28;20552;-52
2023/09/27 05:22:27;;;;;;;19.80;14.43;;;12.20;99.90;;;;;;5031343;28;20552;-51
2023/09/27 05:24:55;;;;;;;18.10;14.70;;;12.20;99.90;;;;;;5033332;28;20462;-52
2023/09/27 05:27:22;;;;;;;17.13;14.07;;;12.20;99.90;;;;;;5026970;28;20512;-52
2023/09/27 05:29:48;;;;;;;22.60;14.87;;;12.20;99.90;;;;;;5031763;28;20490;-51
2023/09/27 05:32:15;;;;;;;18.20;13.83;;;12.30;99.90;;;;;;5031689;28;20512;-51
2023/09/27 05:34:41;;;;;;;15.20;13.60;;;12.30;99.90;;;;;;5033092;28;20458;-52
2023/09/27 05:37:08;;;;;;;16.23;13.90;;;12.20;99.90;;;;;;5034175;28;20466;-51
2023/09/27 05:39:34;;;;;;;19.30;14.77;;;12.20;99.90;;;;;;5034507;28;20482;-51
2023/09/27 05:42:02;;;;;;;20.00;14.13;;;12.20;99.90;;;;;;5035391;28;20888;-52
2023/09/27 05:44:29;;;;;;;18.43;13.73;;;12.30;99.90;;;;;;5034313;28;20459;-51
2023/09/27 05:46:56;;;;;;;15.83;13.50;;;12.30;99.90;;;;;;5034234;28;20462;-55
2023/09/27 05:49:24;;;;;;;16.60;13.60;;;12.30;99.90;;;;;;5031158;28;20484;-51
2023/09/27 05:51:52;;;;;;;15.07;13.17;;;12.30;99.90;;;;;;5033977;28;20462;-51
2023/09/27 05:54:19;;;;;;;15.40;13.13;;;12.20;99.90;;;;;;5034020;28;20462;-51
2023/09/27 05:56:50;;;;;;;19.13;13.80;;;12.30;99.90;;;;;;5036170;28;20446;-50
2023/09/27 05:59:18;;;;;;;16.43;13.77;;;12.30;99.90;;;;;;5033325;28;20474;-50
2023/09/27 06:01:45;;;;;;;15.00;13.40;;;12.30;99.90;;;;;;5025752;28;20486;-50
2023/09/27 06:04:12;;;;;;;20.40;13.80;;;12.30;99.90;;;;;;5031775;28;20468;-49
2023/09/27 06:06:39;;;;;;;17.57;14.03;;;12.30;99.90;;;;;;5033940;28;20446;-49
2023/09/27 06:09:09;;;;;;;21.50;14.33;;;12.40;99.90;;;;;;5032251;28;20978;-49
2023/09/27 06:11:36;;;;;;;21.53;14.10;;;12.40;99.90;;;;;;5034973;28;20461;-50
2023/09/27 06:14:02;;;;;;;16.30;14.27;;;12.50;99.90;;;;;;5025775;28;20504;-49
2023/09/27 06:16:30;;;;;;;19.00;14.40;;;12.60;99.90;;;;;;5033367;28;20467;-48
2023/09/27 06:18:58;;;;;;;39.53;14.60;;;12.60;99.90;;;;;;5027746;28;20533;-50
2023/09/27 06:21:25;;;;;;;16.57;14.37;;;12.70;99.90;;;;;;5029576;28;20573;-51
2023/09/27 06:23:51;;;;;;;17.17;13.57;;;12.80;99.90;;;;;;5026788;28;20456;-50
2023/09/27 06:26:18;;;;;;;16.03;13.33;;;12.80;99.90;;;;;;5029528;28;20953;-51
2023/09/27 06:28:44;;;;;;;16.70;13.10;;;12.90;99.90;;;;;;5030631;28;21007;-50
2023/09/27 06:31:13;;;;;;;17.30;13.37;;;12.90;99.90;;;;;;5033689;28;20509;-50
2023/09/27 06:33:43;;;;;;;20.33;13.70;;;13.00;99.90;;;;;;5033625;28;20858;-50
2023/09/27 06:36:10;;;;;;;16.50;14.80;;;13.00;99.90;;;;;;5030799;28;20459;-50
2023/09/27 06:38:37;;;;;;;23.77;16.20;;;13.10;99.90;;;;;;5030147;28;20483;-50
2023/09/27 06:41:04;;;;;;;18.77;14.67;;;13.20;99.90;;;;;;5033597;28;20863;-50
2023/09/27 06:43:31;;;;;;;22.00;17.80;;;13.30;99.90;;;;;;5031445;28;20455;-51
2023/09/27 06:45:58;;;;;;;17.13;15.27;;;13.50;99.90;;;;;;5031727;28;20459;-50
2023/09/27 06:48:25;;;;;;;16.90;14.60;;;13.60;99.90;;;;;;5028401;28;21263;-51
2023/09/27 06:50:53;;;;;;;22.47;15.23;;;13.60;99.90;;;;;;5032894;28;20463;-51
2023/09/27 06:53:20;;;;;;;29.40;15.43;;;13.60;99.90;;;;;;5030155;28;20810;-50
2023/09/27 06:55:49;;;;;;;19.77;14.60;;;13.70;99.90;;;;;;5031092;28;20521;-51
2023/09/27 06:58:22;;;;;;;17.97;13.87;;;13.70;99.90;;;;;;5029641;28;20459;-50
2023/09/27 07:00:49;;;;;;;20.07;17.53;;;13.80;99.90;;;;;;5031292;28;20467;-52
2023/09/27 07:03:16;;;;;;;18.43;16.60;;;13.90;99.90;;;;;;5030151;28;20549;-51
2023/09/27 07:05:43;;;;;;;32.43;18.83;;;14.00;99.90;;;;;;5030711;28;20840;-51
2023/09/27 07:08:11;;;;;;;20.47;16.93;;;14.20;99.90;;;;;;5036082;28;20471;-50
2023/09/27 07:10:37;;;;;;;21.47;17.23;;;14.40;99.90;;;;;;5035442;28;20944;-50
2023/09/27 07:13:04;;;;;;;29.47;16.57;;;14.50;99.90;;;;;;5033397;28;20477;-51
2023/09/27 07:15:32;;;;;;;27.03;18.00;;;14.60;99.90;;;;;;5034284;28;20557;-50
2023/09/27 07:17:58;;;;;;;21.40;17.80;;;14.80;99.90;;;;;;5030922;28;20450;-50
2023/09/27 07:20:27;;;;;;;22.60;17.73;;;14.90;99.90;;;;;;5029781;28;20478;-51
2023/09/27 07:22:55;;;;;;;26.83;18.53;;;15.00;99.90;;;;;;5023789;28;20506;-50
2023/09/27 07:25:24;;;;;;;27.90;19.10;;;15.20;99.90;;;;;;5031694;28;20463;-51
2023/09/27 07:27:51;;;;;;;21.93;18.67;;;15.30;99.90;;;;;;5031351;28;20458;-50
2023/09/27 07:30:23;;;;;;;23.10;18.17;;;15.50;99.90;;;;;;5036414;28;20490;-50
2023/09/27 07:32:50;;;;;;;33.07;18.03;;;15.60;99.90;;;;;;5039373;28;20462;-49
2023/09/27 07:35:17;;;;;;;25.57;22.70;;;15.70;99.90;;;;;;5032983;28;20969;-51
2023/09/27 07:37:45;;;;;;;32.60;22.40;;;15.90;99.90;;;;;;5040513;28;20528;-51
2023/09/27 07:40:13;;;;;;;33.13;23.97;;;16.10;99.90;;;;;;5038374;28;20960;-51
2023/09/27 07:42:42;;;;;;;38.27;27.00;;;16.30;99.90;;;;;;5043494;28;20492;-50
2023/09/27 07:45:21;;;;;;;35.23;24.60;;;16.40;99.90;;;;;;5035865;28;20806;-52
2023/09/27 07:47:50;;;;;;;32.40;24.97;;;16.70;99.90;;;;;;5038031;28;20866;-50
2023/09/27 07:50:17;;;;;;;37.63;25.07;;;16.80;99.90;;;;;;5028519;28;20560;-50
2023/09/27 07:52:44;;;;;;;38.63;26.30;;;16.90;99.90;;;;;;5037803;28;20558;-49
2023/09/27 07:55:14;;;;;;;36.13;23.77;;;17.10;99.90;;;;;;5029125;28;20474;-52
2023/09/27 07:57:43;;;;;;;30.43;24.57;;;17.20;99.90;;;;;;5038588;28;20454;-51
2023/09/27 08:00:15;;;;;;;37.23;24.73;;;17.40;99.90;;;;;;5030464;28;20484;-50
2023/09/27 08:02:42;;;;;;;27.40;22.93;;;17.50;99.90;;;;;;5028818;28;20474;-51
2023/09/27 08:05:10;;;;;;;33.07;21.93;;;17.50;99.90;;;;;;5030530;28;20459;-53
2023/09/27 08:07:37;;;;;;;31.97;23.77;;;17.70;99.90;;;;;;5040627;28;20512;-50
2023/09/27 08:10:05;;;;;;;31.30;23.10;;;17.80;99.90;;;;;;5031648;28;20463;-51
2023/09/27 08:12:31;;;;;;;32.20;22.00;;;18.00;99.90;;;;;;5031361;28;20512;-52
2023/09/27 08:15:00;;;;;;;32.60;21.37;;;18.10;99.90;;;;;;5028678;28;20490;-50
2023/09/27 08:17:27;;;;;;;29.27;21.80;;;18.20;99.90;;;;;;5030612;28;20501;-51
2023/09/27 08:19:54;;;;;;;33.63;21.40;;;18.30;99.90;;;;;;5026980;28;20839;-51
2023/09/27 08:22:20;;;;;;;33.33;20.70;;;18.50;99.90;;;;;;5029361;28;20483;-52
2023/09/27 08:24:47;;;;;;;24.83;20.87;;;18.60;99.90;;;;;;5029675;28;20462;-51
2023/09/27 08:27:13;;;;;;;22.23;19.53;;;18.70;99.90;;;;;;5028957;28;20886;-51
2023/09/27 08:29:40;;;;;;;25.07;19.37;;;18.80;99.90;;;;;;5028588;28;20486;-51
2023/09/27 08:32:08;;;;;;;22.40;19.30;;;19.00;99.90;;;;;;5039858;28;20443;-51
2023/09/27 08:34:35;;;;;;;24.60;18.23;;;19.10;99.90;;;;;;5026653;28;20501;-51
2023/09/27 08:37:02;;;;;;;19.33;16.90;;;19.30;99.90;;;;;;5028546;28;20490;-51
2023/09/27 08:39:30;;;;;;;21.47;16.80;;;19.40;82.40;;;;;;5030423;28;20511;-56
2023/09/27 08:41:58;;;;;;;27.23;16.50;;;19.60;83.70;;;;;;5036136;28;20490;-51
2023/09/27 08:44:26;;;;;;;20.57;15.87;;;19.80;32.60;;;;;;5033908;28;21099;-50
2023/09/27 08:46:54;;;;;;;18.53;15.27;;;19.90;40.50;;;;;;5028752;28;20955;-53
2023/09/27 08:49:24;;;;;;;21.40;16.20;;;20.00;42.70;;;;;;5030097;28;20561;-51
2023/09/27 08:51:52;;;;;;;27.33;14.90;;;20.20;50.40;;;;;;5028608;28;20880;-52
2023/09/27 08:54:21;;;;;;;18.03;14.40;;;20.50;79.10;;;;;;5027135;28;20893;-52
2023/09/27 08:56:50;;;;;;;16.83;13.97;;;20.70;79.60;;;;;;5027976;28;20512;-51
2023/09/27 08:59:18;;;;;;;18.97;13.73;;;20.80;74.50;;;;;;5027690;28;20503;-51
2023/09/27 09:01:45;;;;;;;20.30;14.43;;;20.90;87.50;;;;;;5028753;28;20469;-51
2023/09/27 09:04:12;;;;;;;15.80;12.73;;;20.90;92.50;;;;;;5027008;28;20610;-51
2023/09/27 09:06:41;;;;;;;15.40;10.63;;;21.00;99.90;;;;;;5042041;28;20884;-52
2023/09/27 09:09:11;;;;;;;10.67;9.60;;;21.10;99.90;;;;;;5035081;28;20536;-52
2023/09/27 09:11:39;;;;;;;13.33;10.67;;;21.20;99.90;;;;;;5031049;28;20954;-50
2023/09/27 09:14:05;;;;;;;14.10;10.77;;;21.30;99.90;;;;;;5045757;28;20450;-50
2023/09/27 09:16:39;;;;;;;15.23;11.00;;;21.30;99.90;;;;;;5035104;28;20513;-50
2023/09/27 09:19:19;;;;;;;14.90;8.97;;;21.50;99.90;;;;;;5032812;28;20486;-50
2023/09/27 09:21:55;;;;;;;19.83;11.00;;;21.50;99.90;;;;;;5034779;28;20462;-51
2023/09/27 09:24:22;;;;;;;14.10;9.63;;;21.60;99.90;;;;;;5035208;28;20954;-51
2023/09/27 09:26:56;;;;;;;17.63;10.63;;;21.80;99.90;;;;;;5035186;28;20473;-51
2023/09/27 09:29:24;;;;;;;17.27;11.40;;;21.90;99.90;;;;;;5040434;28;20485;-51
2023/09/27 09:31:51;;;;;;;12.30;9.73;;;22.10;99.90;;;;;;5046708;28;20545;-52
2023/09/27 09:34:18;;;;;;;21.23;9.80;;;22.30;99.90;;;;;;5042568;28;20453;-49
2023/09/27 09:36:48;;;;;;;12.43;9.17;;;22.40;99.90;;;;;;5035952;28;20508;-51
2023/09/27 09:39:16;;;;;;;13.63;9.27;;;22.80;99.90;;;;;;5040257;28;20478;-52
2023/09/27 09:41:46;;;;;;;17.97;9.03;;;23.00;97.50;;;;;;5034588;28;20443;-51
2023/09/27 09:44:20;;;;;;;18.23;7.90;;;23.30;22.10;;;;;;5034882;28;20514;-51
2023/09/27 09:46:47;;;;;;;12.67;9.03;;;23.30;81.00;;;;;;5033514;28;20520;-52
2023/09/27 09:49:15;;;;;;;13.43;8.40;;;23.30;34.90;;;;;;5031814;28;20852;-50
2023/09/27 09:51:47;;;;;;;30.97;9.27;;;23.40;35.80;;;;;;5025886;28;20518;-50
2023/09/27 09:54:19;;;;;;;12.37;8.90;;;23.50;46.70;;;;;;5043492;28;20457;-52
2023/09/27 09:56:47;;;;;;;17.53;9.77;;;23.80;47.30;;;;;;5043545;28;21005;-51
2023/09/27 09:59:18;;;;;;;12.00;9.43;;;24.70;87.30;;;;;;5040675;28;20478;-51
2023/09/27 10:01:45;;;;;;;12.77;8.50;;;25.00;99.90;;;;;;5033764;28;20543;-58
2023/09/27 10:04:13;;;;;;;13.43;7.70;;;26.00;99.90;;;;;;5036278;28;20589;-52
2023/09/27 10:06:40;;;;;;;26.30;8.70;;;25.60;99.90;;;;;;5032684;28;20455;-51
2023/09/27 10:09:13;;;;;;;15.07;7.80;;;25.30;99.90;;;;;;5029014;28;20498;-53
2023/09/27 10:11:42;;;;;;;17.53;7.50;;;24.90;99.90;;;;;;5027401;28;20837;-51
2023/09/27 10:14:11;;;;;;;23.43;8.37;;;25.20;99.90;;;;;;5030663;28;20464;-52
2023/09/27 10:16:38;;;;;;;18.07;7.33;;;26.30;99.90;;;;;;5032964;28;20459;-51
2023/09/27 10:19:05;;;;;;;8.90;6.50;;;26.80;99.90;;;;;;5030485;28;21003;-52
2023/09/27 10:21:32;;;;;;;9.90;7.23;;;25.90;99.90;;;;;;5032780;28;20466;-53
2023/09/27 10:24:00;;;;;;;18.23;7.60;;;26.10;99.90;;;;;;5025601;28;20483;-51
2023/09/27 10:26:40;;;;;;;9.13;6.40;;;26.00;99.90;;;;;;5029262;28;20447;-51
2023/09/27 10:32:21;;;;;;;12.73;6.40;;;25.30;99.90;;;;;;5042028;28;20481;-54
2023/09/27 10:34:48;;;;;;;10.97;6.33;;;25.30;99.90;;;;;;4998271;28;20450;-54
2023/09/27 10:37:16;;;;;;;11.97;6.80;;;25.00;99.90;;;;;;5032425;28;20463;-53
2023/09/27 10:40:20;;;;;;;11.13;6.77;;;24.70;99.90;;;;;;5041537;28;20519;-53
2023/09/27 10:42:47;;;;;;;14.60;7.87;;;24.60;99.90;;;;;;5030150;28;20582;-55
2023/09/27 10:45:14;;;;;;;14.70;7.37;;;24.50;99.90;;;;;;5027777;28;20460;-54
2023/09/27 10:47:41;;;;;;;11.90;6.50;;;24.40;99.90;;;;;;5025128;28;20459;-55
2023/09/27 10:50:10;;;;;;;10.20;7.60;;;24.40;99.90;;;;;;5031788;28;20573;-55
2023/09/27 10:52:39;;;;;;;17.00;7.50;;;24.30;99.90;;;;;;5024386;28;20458;-54
2023/09/27 10:55:13;;;;;;;15.53;8.73;;;24.30;99.90;;;;;;5030659;28;20469;-54
2023/09/27 10:57:44;;;;;;;11.90;7.17;;;24.20;99.90;;;;;;5030527;28;20850;-53
2023/09/27 11:00:13;;;;;;;10.13;7.10;;;24.10;99.90;;;;;;5021069;28;20486;-54
2023/09/27 11:02:41;;;;;;;13.13;6.83;;;24.10;99.90;;;;;;5021601;28;20522;-53
2023/09/27 11:05:08;;;;;;;10.63;8.00;;;24.20;99.90;;;;;;5029496;28;20469;-56
2023/09/27 11:07:46;;;;;;;8.90;6.87;;;24.30;99.90;;;;;;5026713;28;20513;-54
2023/09/27 11:10:19;;;;;;;18.87;7.00;;;24.30;99.90;;;;;;5025056;28;20523;-54
2023/09/27 11:12:47;;;;;;;12.53;7.83;;;24.30;99.90;;;;;;5038894;28;20466;-54
2023/09/27 11:15:23;;;;;;;19.13;9.00;;;24.30;99.90;;;;;;5037352;28;20508;-54
2023/09/27 11:17:54;;;;;;;29.33;7.40;;;24.20;99.90;;;;;;5028272;28;20461;-51
2023/09/27 11:20:21;;;;;;;17.13;7.60;;;24.10;99.90;;;;;;5025917;28;20479;-51
2023/09/27 11:22:56;;;;;;;13.73;7.10;;;24.20;99.90;;;;;;5030019;28;20483;-52
2023/09/27 11:25:27;;;;;;;19.27;6.93;;;24.30;99.90;;;;;;5026512;28;20540;-51
2023/09/27 11:27:55;;;;;;;13.40;7.70;;;24.50;99.90;;;;;;5031865;28;20458;-52
2023/09/27 11:30:28;;;;;;;25.50;6.70;;;24.50;99.90;;;;;;5025467;28;20491;-51
2023/09/27 11:32:55;;;;;;;11.93;6.73;;;24.50;99.90;;;;;;5038914;28;20465;-51
2023/09/27 11:35:22;;;;;;;15.50;6.80;;;24.50;99.90;;;;;;5037099;28;20811;-51
2023/09/27 11:37:48;;;;;;;9.47;5.90;;;24.50;99.90;;;;;;5034873;28;20467;-51
2023/09/27 11:40:15;;;;;;;8.67;5.00;;;24.50;99.90;;;;;;5038886;28;20483;-51
2023/09/27 11:42:50;;;;;;;14.43;5.23;;;24.60;99.90;;;;;;5030846;28;20463;-51
2023/09/27 11:45:18;;;;;;;12.73;6.30;;;24.70;99.90;;;;;;5029727;28;20463;-51
2023/09/27 11:47:48;;;;;;;8.60;5.50;;;24.70;99.90;;;;;;5019613;28;21267;-51
2023/09/27 11:50:15;;;;;;;20.20;6.63;;;24.80;99.90;;;;;;5025097;28;20482;-53
2023/09/27 11:52:43;;;;;;;7.30;5.30;;;24.80;99.90;;;;;;5035950;28;20451;-51
2023/09/27 11:55:10;;;;;;;13.93;5.57;;;24.90;99.90;;;;;;5026840;28;20498;-51
2023/09/27 11:57:37;;;;;;;8.60;5.00;;;24.90;99.90;;;;;;5021250;28;20458;-52
2023/09/27 12:00:08;;;;;;;13.20;5.53;;;24.90;99.90;;;;;;5023560;28;20536;-51
2023/09/27 12:02:36;;;;;;;13.93;4.53;;;25.10;99.90;;;;;;5038448;28;21005;-52
2023/09/27 12:05:05;;;;;;;16.20;5.07;;;25.20;99.90;;;;;;5022541;28;21059;-50
2023/09/27 12:07:32;;;;;;;5.43;4.90;;;25.40;99.90;;;;;;5030226;28;20528;-51
2023/09/27 12:09:59;;;;;;;10.60;4.33;;;25.60;99.90;;;;;;5031742;28;20536;-52
2023/09/27 12:12:25;;;;;;;4.70;4.20;;;25.70;99.90;;;;;;5031349;28;20881;-51
2023/09/27 12:14:53;;;;;;;6.63;4.53;;;25.80;99.90;;;;;;5031992;28;20458;-51
2023/09/27 12:17:20;;;;;;;9.03;4.87;;;25.80;99.90;;;;;;5032416;28;20897;-51
2023/09/27 12:19:48;;;;;;;7.10;4.23;;;25.90;1.40;;;;;;5038682;28;20474;-51
2023/09/27 12:22:15;;;;;;;6.67;4.27;;;25.90;99.90;;;;;;5046650;28;20462;-52
2023/09/27 12:24:42;;;;;;;5.57;4.53;;;26.00;99.90;;;;;;5030188;28;20486;-52
2023/09/27 12:27:08;;;;;;;8.03;4.50;;;26.60;99.90;;;;;;5030957;28;20463;-52
2023/09/27 12:29:35;;;;;;;7.40;5.00;;;27.80;99.90;;;;;;5028123;28;20573;-51
2023/09/27 12:32:02;;;;;;;6.10;5.33;;;27.60;99.90;;;;;;5035015;28;20935;-51
2023/09/27 12:34:29;;;;;;;4.33;4.03;;;27.50;99.90;;;;;;5041227;28;20455;-51
2023/09/27 12:36:57;;;;;;;5.37;3.83;;;27.20;99.90;;;;;;5039894;28;20956;-52